Disclaimer

Please do not use the information listed here in-flight or in-navigation, as they are not provided to us by the airports but are provided by volunteers, so they might be outdated.

Search


Regions


Airport information page

Radio informations:
Tower (TWR) - 118.3 MHz
IBAGUE RDO - 3488 MHz
BOGOTA APP - 119.5 MHz

Airport informations:
Latitude: 04° 25' 17.79" N
Longitude: 075° 07' 59.88" W
Elevation: 2999 feet - 914 meters
Operating hours: Remarks
Operating agency: Civil government, landing fees and diplomatic clearance may be required
Timezone: UTC-5
Fuel: Jet A1, without icing nhibitor.

100/130 MIL Spec, low lead, aviation gasoline (BLUE)

Runway information:
14/32 - 5905 x 98 feet< - >1800 x 30 meters

Recent METARs:
SKIB 211700Z 09005KT 9999 BKN020 SCT100 26/22 A3012
SKIB 211700Z 09005KT 9999 BKN020 SCT100 26/22 A3012
SKIB 211800Z 15006KT 9999 BKN030 SCT200 27/22 A3008

Airport on the map: